sensor_id;sensor_type;location;lat;lon;timestamp;pressure;altitude;pressure_sealevel;temperature;humidity
70009;BME280;59542;37.950;-122.338;2022-11-15T00:00:54;101771.69;;;14.72;39.37
70009;BME280;59542;37.950;-122.338;2022-11-15T00:03:23;101767.94;;;14.73;39.73
70009;BME280;59542;37.950;-122.338;2022-11-15T00:05:50;101765.19;;;14.93;39.51
70009;BME280;59542;37.950;-122.338;2022-11-15T00:08:16;101765.59;;;14.96;39.38
70009;BME280;59542;37.950;-122.338;2022-11-15T00:10:54;101770.63;;;14.79;39.83
70009;BME280;59542;37.950;-122.338;2022-11-15T00:13:20;101776.44;;;14.70;39.36
70009;BME280;59542;37.950;-122.338;2022-11-15T00:15:46;101772.44;;;14.92;39.38
70009;BME280;59542;37.950;-122.338;2022-11-15T00:18:13;101771.94;;;14.50;40.60
70009;BME280;59542;37.950;-122.338;2022-11-15T00:20:40;101769.22;;;14.57;40.33
70009;BME280;59542;37.950;-122.338;2022-11-15T00:23:07;101770.88;;;14.25;41.02
70009;BME280;59542;37.950;-122.338;2022-11-15T00:25:33;101763.81;;;14.64;40.18
70009;BME280;59542;37.950;-122.338;2022-11-15T00:28:00;101772.13;;;14.29;41.05
70009;BME280;59542;37.950;-122.338;2022-11-15T00:30:27;101760.09;;;13.92;41.56
70009;BME280;59542;37.950;-122.338;2022-11-15T00:32:54;101775.00;;;14.08;41.48
70009;BME280;59542;37.950;-122.338;2022-11-15T00:35:21;101766.72;;;14.03;42.01
70009;BME280;59542;37.950;-122.338;2022-11-15T00:37:47;101763.19;;;13.89;42.21
70009;BME280;59542;37.950;-122.338;2022-11-15T00:40:14;101771.25;;;13.82;42.43
70009;BME280;59542;37.950;-122.338;2022-11-15T00:42:41;101765.88;;;13.89;42.32
70009;BME280;59542;37.950;-122.338;2022-11-15T00:45:08;101765.47;;;13.85;42.43
70009;BME280;59542;37.950;-122.338;2022-11-15T00:47:35;101764.84;;;13.90;41.96
70009;BME280;59542;37.950;-122.338;2022-11-15T00:50:01;101768.75;;;13.87;42.11
70009;BME280;59542;37.950;-122.338;2022-11-15T00:52:27;101770.63;;;13.73;42.37
70009;BME280;59542;37.950;-122.338;2022-11-15T00:54:53;101767.97;;;14.00;41.91
70009;BME280;59542;37.950;-122.338;2022-11-15T00:57:19;101774.56;;;13.91;42.14
70009;BME280;59542;37.950;-122.338;2022-11-15T00:59:46;101773.53;;;13.72;42.23
70009;BME280;59542;37.950;-122.338;2022-11-15T01:02:12;101763.88;;;13.30;43.63
70009;BME280;59542;37.950;-122.338;2022-11-15T01:04:38;101768.34;;;13.16;44.13
70009;BME280;59542;37.950;-122.338;2022-11-15T01:07:04;101769.06;;;13.38;43.66
70009;BME280;59542;37.950;-122.338;2022-11-15T01:09:31;101763.25;;;13.28;43.79
70009;BME280;59542;37.950;-122.338;2022-11-15T01:11:57;101776.69;;;12.93;44.69
70009;BME280;59542;37.950;-122.338;2022-11-15T01:14:23;101766.06;;;13.19;44.45
70009;BME280;59542;37.950;-122.338;2022-11-15T01:16:50;101774.84;;;12.93;44.68
70009;BME280;59542;37.950;-122.338;2022-11-15T01:19:16;101776.97;;;12.70;45.41
70009;BME280;59542;37.950;-122.338;2022-11-15T01:21:42;101781.19;;;12.79;45.41
70009;BME280;59542;37.950;-122.338;2022-11-15T01:24:12;101779.66;;;12.70;45.69
70009;BME280;59542;37.950;-122.338;2022-11-15T01:26:38;101784.56;;;12.32;46.27
70009;BME280;59542;37.950;-122.338;2022-11-15T01:29:04;101785.09;;;12.49;46.28
70009;BME280;59542;37.950;-122.338;2022-11-15T01:31:31;101782.13;;;12.37;46.46
70009;BME280;59542;37.950;-122.338;2022-11-15T01:33:57;101785.03;;;12.14;47.40
70009;BME280;59542;37.950;-122.338;2022-11-15T01:36:23;101785.59;;;12.09;47.21
70009;BME280;59542;37.950;-122.338;2022-11-15T01:38:59;101787.84;;;12.06;47.11
70009;BME280;59542;37.950;-122.338;2022-11-15T01:41:28;101780.84;;;12.05;47.30
70009;BME280;59542;37.950;-122.338;2022-11-15T01:47:01;101788.47;;;11.86;47.33
70009;BME280;59542;37.950;-122.338;2022-11-15T01:49:30;101788.03;;;12.04;46.31
70009;BME280;59542;37.950;-122.338;2022-11-15T01:51:59;101791.81;;;11.88;46.51
70009;BME280;59542;37.950;-122.338;2022-11-15T01:54:26;101793.84;;;11.86;46.22
70009;BME280;59542;37.950;-122.338;2022-11-15T01:57:02;101803.28;;;11.82;46.20
70009;BME280;59542;37.950;-122.338;2022-11-15T01:59:30;101794.25;;;11.83;46.03
70009;BME280;59542;37.950;-122.338;2022-11-15T02:01:57;101794.41;;;11.82;46.07
70009;BME280;59542;37.950;-122.338;2022-11-15T02:04:28;101791.13;;;12.01;45.52
70009;BME280;59542;37.950;-122.338;2022-11-15T02:06:55;101799.00;;;11.88;45.76
70009;BME280;59542;37.950;-122.338;2022-11-15T02:09:21;101805.97;;;12.04;45.74
70009;BME280;59542;37.950;-122.338;2022-11-15T02:11:48;101806.50;;;11.93;46.00
70009;BME280;59542;37.950;-122.338;2022-11-15T02:14:18;101811.44;;;11.89;46.05
70009;BME280;59542;37.950;-122.338;2022-11-15T02:19:52;101820.09;;;11.91;46.02
70009;BME280;59542;37.950;-122.338;2022-11-15T02:22:56;101816.47;;;11.99;45.87
70009;BME280;59542;37.950;-122.338;2022-11-15T02:31:05;101819.91;;;11.93;44.54
70009;BME280;59542;37.950;-122.338;2022-11-15T02:37:07;101827.91;;;11.86;44.26
70009;BME280;59542;37.950;-122.338;2022-11-15T02:42:33;101827.78;;;11.94;43.62
70009;BME280;59542;37.950;-122.338;2022-11-15T02:45:24;101826.25;;;11.85;43.79
70009;BME280;59542;37.950;-122.338;2022-11-15T02:47:55;101830.22;;;11.89;43.72
70009;BME280;59542;37.950;-122.338;2022-11-15T02:50:27;101838.16;;;11.82;43.94
70009;BME280;59542;37.950;-122.338;2022-11-15T02:52:55;101840.59;;;11.99;43.46
70009;BME280;59542;37.950;-122.338;2022-11-15T02:55:30;101847.47;;;12.01;43.42
70009;BME280;59542;37.950;-122.338;2022-11-15T02:58:06;101852.13;;;12.14;43.26
70009;BME280;59542;37.950;-122.338;2022-11-15T03:00:50;101854.25;;;12.19;42.98
70009;BME280;59542;37.950;-122.338;2022-11-15T03:03:38;101852.06;;;12.07;43.62
70009;BME280;59542;37.950;-122.338;2022-11-15T03:09:07;101843.00;;;11.72;44.63
70009;BME280;59542;37.950;-122.338;2022-11-15T03:11:41;101845.72;;;11.94;44.02
70009;BME280;59542;37.950;-122.338;2022-11-15T03:14:29;101848.44;;;11.79;44.49
70009;BME280;59542;37.950;-122.338;2022-11-15T03:17:11;101843.00;;;11.72;44.52
70009;BME280;59542;37.950;-122.338;2022-11-15T03:19:45;101844.47;;;11.60;44.93
70009;BME280;59542;37.950;-122.338;2022-11-15T03:22:16;101849.19;;;11.73;44.46
70009;BME280;59542;37.950;-122.338;2022-11-15T03:24:46;101847.50;;;11.86;44.61
70009;BME280;59542;37.950;-122.338;2022-11-15T03:27:17;101852.31;;;11.91;44.45
70009;BME280;59542;37.950;-122.338;2022-11-15T03:29:48;101853.34;;;11.90;44.13
70009;BME280;59542;37.950;-122.338;2022-11-15T03:32:19;101856.38;;;11.87;44.39
70009;BME280;59542;37.950;-122.338;2022-11-15T03:37:24;101861.56;;;11.88;44.32
70009;BME280;59542;37.950;-122.338;2022-11-15T03:39:51;101868.34;;;11.84;44.60
70009;BME280;59542;37.950;-122.338;2022-11-15T03:42:22;101867.31;;;11.85;44.57
70009;BME280;59542;37.950;-122.338;2022-11-15T03:44:55;101862.47;;;11.81;44.57
70009;BME280;59542;37.950;-122.338;2022-11-15T03:47:29;101864.75;;;11.62;45.08
70009;BME280;59542;37.950;-122.338;2022-11-15T03:50:04;101870.25;;;11.76;45.13
70009;BME280;59542;37.950;-122.338;2022-11-15T03:52:34;101865.94;;;11.60;45.01
70009;BME280;59542;37.950;-122.338;2022-11-15T03:55:03;101863.72;;;11.49;45.54
70009;BME280;59542;37.950;-122.338;2022-11-15T03:57:30;101859.75;;;11.59;45.26
70009;BME280;59542;37.950;-122.338;2022-11-15T03:59:56;101868.72;;;11.52;45.41
70009;BME280;59542;37.950;-122.338;2022-11-15T04:02:22;101873.63;;;11.63;45.47
70009;BME280;59542;37.950;-122.338;2022-11-15T04:04:48;101873.34;;;11.58;45.67
70009;BME280;59542;37.950;-122.338;2022-11-15T04:07:15;101868.09;;;11.50;45.74
70009;BME280;59542;37.950;-122.338;2022-11-15T04:09:41;101874.91;;;11.67;45.40
70009;BME280;59542;37.950;-122.338;2022-11-15T04:12:25;101875.47;;;11.62;45.40
70009;BME280;59542;37.950;-122.338;2022-11-15T04:15:08;101875.66;;;11.61;45.79
70009;BME280;59542;37.950;-122.338;2022-11-15T04:17:44;101881.31;;;11.66;45.47
70009;BME280;59542;37.950;-122.338;2022-11-15T04:20:15;101881.31;;;11.66;45.64
70009;BME280;59542;37.950;-122.338;2022-11-15T04:23:01;101884.19;;;11.50;45.92
70009;BME280;59542;37.950;-122.338;2022-11-15T04:25:49;101893.13;;;11.57;45.96
70009;BME280;59542;37.950;-122.338;2022-11-15T04:28:16;101884.25;;;11.56;46.01
70009;BME280;59542;37.950;-122.338;2022-11-15T04:30:43;101874.72;;;11.54;46.00
70009;BME280;59542;37.950;-122.338;2022-11-15T04:33:09;101888.88;;;11.48;46.38
70009;BME280;59542;37.950;-122.338;2022-11-15T04:35:36;101890.25;;;11.58;46.50
70009;BME280;59542;37.950;-122.338;2022-11-15T04:38:04;101894.09;;;11.49;46.23
70009;BME280;59542;37.950;-122.338;2022-11-15T04:40:31;101892.94;;;11.44;46.45
70009;BME280;59542;37.950;-122.338;2022-11-15T04:42:57;101897.78;;;11.33;46.72
70009;BME280;59542;37.950;-122.338;2022-11-15T04:45:24;101900.19;;;11.28;46.70
70009;BME280;59542;37.950;-122.338;2022-11-15T04:47:50;101905.72;;;11.42;46.55
70009;BME280;59542;37.950;-122.338;2022-11-15T04:50:16;101905.69;;;11.27;46.82
70009;BME280;59542;37.950;-122.338;2022-11-15T04:52:49;101908.84;;;11.01;47.56
70009;BME280;59542;37.950;-122.338;2022-11-15T04:55:16;101916.78;;;11.09;47.79
70009;BME280;59542;37.950;-122.338;2022-11-15T04:57:42;101923.81;;;11.10;47.39
70009;BME280;59542;37.950;-122.338;2022-11-15T05:00:11;101926.47;;;11.10;47.36
70009;BME280;59542;37.950;-122.338;2022-11-15T05:02:38;101931.03;;;11.24;47.05
70009;BME280;59542;37.950;-122.338;2022-11-15T05:05:23;101936.03;;;11.27;48.59
70009;BME280;59542;37.950;-122.338;2022-11-15T05:07:50;101935.19;;;11.12;50.24
70009;BME280;59542;37.950;-122.338;2022-11-15T05:10:16;101933.00;;;10.93;52.57
70009;BME280;59542;37.950;-122.338;2022-11-15T05:12:43;101950.31;;;10.44;54.49
70009;BME280;59542;37.950;-122.338;2022-11-15T05:15:09;101941.09;;;10.24;55.07
70009;BME280;59542;37.950;-122.338;2022-11-15T05:17:35;101950.06;;;10.00;56.13
70009;BME280;59542;37.950;-122.338;2022-11-15T05:20:02;101956.06;;;9.63;57.02
70009;BME280;59542;37.950;-122.338;2022-11-15T05:22:28;101960.81;;;9.36;57.93
70009;BME280;59542;37.950;-122.338;2022-11-15T05:24:54;101963.19;;;9.15;58.39
70009;BME280;59542;37.950;-122.338;2022-11-15T05:27:20;101963.88;;;9.01;58.71
70009;BME280;59542;37.950;-122.338;2022-11-15T05:29:46;101967.03;;;9.04;58.74
70009;BME280;59542;37.950;-122.338;2022-11-15T05:32:13;101970.19;;;9.24;57.99
70009;BME280;59542;37.950;-122.338;2022-11-15T05:34:39;101963.19;;;9.15;58.16
70009;BME280;59542;37.950;-122.338;2022-11-15T05:37:06;101977.38;;;9.07;58.72
70009;BME280;59542;37.950;-122.338;2022-11-15T05:39:32;101972.84;;;9.16;58.52
70009;BME280;59542;37.950;-122.338;2022-11-15T05:42:14;101977.22;;;9.01;58.83
70009;BME280;59542;37.950;-122.338;2022-11-15T05:44:44;101984.72;;;8.81;59.67
70009;BME280;59542;37.950;-122.338;2022-11-15T05:47:15;101979.75;;;8.94;59.22
70009;BME280;59542;37.950;-122.338;2022-11-15T05:49:44;101989.25;;;8.96;59.24
70009;BME280;59542;37.950;-122.338;2022-11-15T05:52:13;101990.72;;;8.83;59.61
70009;BME280;59542;37.950;-122.338;2022-11-15T05:54:42;101976.72;;;8.81;59.67
70009;BME280;59542;37.950;-122.338;2022-11-15T05:57:09;101986.38;;;8.82;59.53
70009;BME280;59542;37.950;-122.338;2022-11-15T05:59:36;101986.38;;;8.82;59.35
70009;BME280;59542;37.950;-122.338;2022-11-15T06:02:02;101981.75;;;9.00;58.72
70009;BME280;59542;37.950;-122.338;2022-11-15T06:04:28;101980.88;;;9.16;58.17
70009;BME280;59542;37.950;-122.338;2022-11-15T06:06:54;101977.19;;;9.25;57.68
70009;BME280;59542;37.950;-122.338;2022-11-15T06:09:21;101978.84;;;9.26;57.59
70009;BME280;59542;37.950;-122.338;2022-11-15T06:11:47;101984.38;;;9.24;57.69
70009;BME280;59542;37.950;-122.338;2022-11-15T06:14:13;101984.53;;;9.15;57.89
70009;BME280;59542;37.950;-122.338;2022-11-15T06:16:39;101988.72;;;9.17;58.13
70009;BME280;59542;37.950;-122.338;2022-11-15T06:19:06;101983.56;;;9.08;58.45
70009;BME280;59542;37.950;-122.338;2022-11-15T06:21:35;101983.56;;;8.91;59.13
70009;BME280;59542;37.950;-122.338;2022-11-15T06:24:01;101983.38;;;8.60;60.47
70009;BME280;59542;37.950;-122.338;2022-11-15T06:26:27;101992.88;;;8.71;61.02
70009;BME280;59542;37.950;-122.338;2022-11-15T06:28:53;101993.38;;;8.58;61.81
70009;BME280;59542;37.950;-122.338;2022-11-15T06:31:20;101997.72;;;8.51;62.03
70009;BME280;59542;37.950;-122.338;2022-11-15T06:33:46;101987.34;;;8.48;62.59
70009;BME280;59542;37.950;-122.338;2022-11-15T06:36:13;101991.38;;;8.44;62.78
70009;BME280;59542;37.950;-122.338;2022-11-15T06:38:40;101987.19;;;8.41;62.87
70009;BME280;59542;37.950;-122.338;2022-11-15T06:41:09;101988.66;;;8.36;62.82
70009;BME280;59542;37.950;-122.338;2022-11-15T06:43:36;101983.03;;;8.39;62.91
70009;BME280;59542;37.950;-122.338;2022-11-15T06:46:04;101981.50;;;8.36;62.99
70009;BME280;59542;37.950;-122.338;2022-11-15T06:48:31;101989.13;;;8.23;63.48
70009;BME280;59542;37.950;-122.338;2022-11-15T06:51:00;101982.44;;;8.27;63.65
70009;BME280;59542;37.950;-122.338;2022-11-15T06:53:27;101981.47;;;8.28;63.68
70009;BME280;59542;37.950;-122.338;2022-11-15T06:56:01;101982.25;;;8.20;63.81
70009;BME280;59542;37.950;-122.338;2022-11-15T06:58:28;101981.25;;;8.21;63.83
70009;BME280;59542;37.950;-122.338;2022-11-15T07:00:59;101983.22;;;8.03;64.24
70009;BME280;59542;37.950;-122.338;2022-11-15T07:03:25;101991.59;;;8.16;64.57
70009;BME280;59542;37.950;-122.338;2022-11-15T07:05:55;101987.28;;;8.24;64.28
70009;BME280;59542;37.950;-122.338;2022-11-15T07:08:22;101987.28;;;8.24;64.48
70009;BME280;59542;37.950;-122.338;2022-11-15T07:10:49;101984.94;;;8.20;64.50
70009;BME280;59542;37.950;-122.338;2022-11-15T07:13:16;101992.19;;;7.94;65.08
70009;BME280;59542;37.950;-122.338;2022-11-15T07:15:42;101994.81;;;7.86;65.24
70009;BME280;59542;37.950;-122.338;2022-11-15T07:18:08;101992.97;;;7.86;65.13
70009;BME280;59542;37.950;-122.338;2022-11-15T07:20:35;101988.16;;;7.90;64.83
70009;BME280;59542;37.950;-122.338;2022-11-15T07:23:02;101985.44;;;7.82;64.95
70009;BME280;59542;37.950;-122.338;2022-11-15T07:25:29;101975.13;;;7.79;64.88
70009;BME280;59542;37.950;-122.338;2022-11-15T07:27:58;101987.28;;;7.81;64.53
70009;BME280;59542;37.950;-122.338;2022-11-15T07:30:26;101988.13;;;7.82;64.40
70009;BME280;59542;37.950;-122.338;2022-11-15T07:32:54;101991.13;;;7.79;64.44
70009;BME280;59542;37.950;-122.338;2022-11-15T07:35:20;101988.09;;;7.74;64.40
70009;BME280;59542;37.950;-122.338;2022-11-15T07:37:58;101983.25;;;7.77;64.35
70009;BME280;59542;37.950;-122.338;2022-11-15T07:40:26;101988.75;;;7.76;64.45
70009;BME280;59542;37.950;-122.338;2022-11-15T07:42:52;101992.72;;;7.72;64.69
70009;BME280;59542;37.950;-122.338;2022-11-15T07:45:24;101977.59;;;7.72;64.42
70009;BME280;59542;37.950;-122.338;2022-11-15T07:47:54;101978.72;;;7.61;64.40
70009;BME280;59542;37.950;-122.338;2022-11-15T07:50:22;101985.34;;;7.57;64.29
70009;BME280;59542;37.950;-122.338;2022-11-15T07:52:59;101978.47;;;7.55;64.43
70009;BME280;59542;37.950;-122.338;2022-11-15T07:55:27;101976.81;;;7.54;64.29
70009;BME280;59542;37.950;-122.338;2022-11-15T07:58:01;101992.94;;;7.44;64.48
70009;BME280;59542;37.950;-122.338;2022-11-15T08:00:27;101987.91;;;7.41;64.46
70009;BME280;59542;37.950;-122.338;2022-11-15T08:05:29;101988.00;;;7.31;64.60
70009;BME280;59542;37.950;-122.338;2022-11-15T08:07:56;101979.94;;;7.49;64.58
70009;BME280;59542;37.950;-122.338;2022-11-15T08:10:22;101985.22;;;7.33;64.43
70009;BME280;59542;37.950;-122.338;2022-11-15T08:12:57;101986.91;;;7.42;64.60
70009;BME280;59542;37.950;-122.338;2022-11-15T08:15:23;101989.31;;;7.27;64.92
70009;BME280;59542;37.950;-122.338;2022-11-15T08:17:54;101988.09;;;7.22;64.87
70009;BME280;59542;37.950;-122.338;2022-11-15T08:20:20;101979.78;;;7.17;65.16
70009;BME280;59542;37.950;-122.338;2022-11-15T08:22:46;101980.69;;;7.07;65.07
70009;BME280;59542;37.950;-122.338;2022-11-15T08:25:13;101983.50;;;7.06;65.46
70009;BME280;59542;37.950;-122.338;2022-11-15T08:27:39;101990.19;;;7.10;65.32
70009;BME280;59542;37.950;-122.338;2022-11-15T08:30:05;101991.88;;;7.11;65.45
70009;BME280;59542;37.950;-122.338;2022-11-15T08:32:33;101992.63;;;7.03;65.54
70009;BME280;59542;37.950;-122.338;2022-11-15T08:34:59;102003.91;;;6.97;65.89
70009;BME280;59542;37.950;-122.338;2022-11-15T08:37:25;101989.38;;;6.92;65.97
70009;BME280;59542;37.950;-122.338;2022-11-15T08:39:51;101991.22;;;6.91;66.63
70009;BME280;59542;37.950;-122.338;2022-11-15T08:42:18;101987.56;;;6.92;66.98
70009;BME280;59542;37.950;-122.338;2022-11-15T08:44:44;101991.34;;;7.07;67.66
70009;BME280;59542;37.950;-122.338;2022-11-15T08:47:13;101988.78;;;7.24;67.56
70009;BME280;59542;37.950;-122.338;2022-11-15T08:49:39;101997.19;;;6.93;68.59
70009;BME280;59542;37.950;-122.338;2022-11-15T08:52:06;102008.78;;;6.84;68.50
70009;BME280;59542;37.950;-122.338;2022-11-15T08:54:32;102003.84;;;6.89;68.24
70009;BME280;59542;37.950;-122.338;2022-11-15T08:56:58;102007.00;;;6.93;67.66
70009;BME280;59542;37.950;-122.338;2022-11-15T08:59:24;101992.19;;;6.90;67.75
70009;BME280;59542;37.950;-122.338;2022-11-15T09:01:50;101994.69;;;6.92;67.31
70009;BME280;59542;37.950;-122.338;2022-11-15T09:04:17;101994.09;;;6.80;67.57
70009;BME280;59542;37.950;-122.338;2022-11-15T09:06:43;101996.22;;;6.94;67.91
70009;BME280;59542;37.950;-122.338;2022-11-15T09:09:09;102004.34;;;6.93;68.17
70009;BME280;59542;37.950;-122.338;2022-11-15T09:11:35;102012.22;;;6.94;68.33
70009;BME280;59542;37.950;-122.338;2022-11-15T09:14:02;102000.19;;;6.54;69.32
70009;BME280;59542;37.950;-122.338;2022-11-15T09:16:29;102003.66;;;6.37;69.67
70009;BME280;59542;37.950;-122.338;2022-11-15T09:18:56;102005.53;;;6.27;69.81
70009;BME280;59542;37.950;-122.338;2022-11-15T09:21:22;102011.16;;;6.24;69.59
70009;BME280;59542;37.950;-122.338;2022-11-15T09:23:51;102018.72;;;6.46;69.59
70009;BME280;59542;37.950;-122.338;2022-11-15T09:26:17;102019.94;;;6.52;69.56
70009;BME280;59542;37.950;-122.338;2022-11-15T09:28:44;102022.44;;;6.35;70.24
70009;BME280;59542;37.950;-122.338;2022-11-15T09:31:10;102025.38;;;6.05;71.43
70009;BME280;59542;37.950;-122.338;2022-11-15T09:33:36;102018.16;;;5.97;72.07
70009;BME280;59542;37.950;-122.338;2022-11-15T09:36:07;102018.00;;;6.26;71.42
70009;BME280;59542;37.950;-122.338;2022-11-15T09:38:35;102012.34;;;6.12;71.56
70009;BME280;59542;37.950;-122.338;2022-11-15T09:44:08;102008.91;;;6.01;71.11
70009;BME280;59542;37.950;-122.338;2022-11-15T09:46:55;102018.69;;;6.28;70.52
70009;BME280;59542;37.950;-122.338;2022-11-15T09:49:24;102017.41;;;6.05;71.29
70009;BME280;59542;37.950;-122.338;2022-11-15T09:51:52;102017.56;;;6.03;71.81
70009;BME280;59542;37.950;-122.338;2022-11-15T10:03:28;102021.41;;;5.44;75.24
70009;BME280;59542;37.950;-122.338;2022-11-15T10:06:03;102028.75;;;5.60;74.69
70009;BME280;59542;37.950;-122.338;2022-11-15T10:08:53;102022.00;;;5.66;74.81
70009;BME280;59542;37.950;-122.338;2022-11-15T10:11:24;102023.00;;;5.55;74.97
70009;BME280;59542;37.950;-122.338;2022-11-15T10:13:53;102030.28;;;5.63;75.23
70009;BME280;59542;37.950;-122.338;2022-11-15T10:16:39;102018.09;;;5.70;74.72
70009;BME280;59542;37.950;-122.338;2022-11-15T10:22:21;102014.72;;;5.77;74.88
70009;BME280;59542;37.950;-122.338;2022-11-15T10:24:50;102014.59;;;5.69;75.19
70009;BME280;59542;37.950;-122.338;2022-11-15T10:27:19;102022.50;;;5.51;76.71
70009;BME280;59542;37.950;-122.338;2022-11-15T10:29:49;102027.22;;;5.57;76.53
70009;BME280;59542;37.950;-122.338;2022-11-15T10:32:19;102024.41;;;5.59;76.12
70009;BME280;59542;37.950;-122.338;2022-11-15T10:34:47;102026.22;;;5.68;76.19
70009;BME280;59542;37.950;-122.338;2022-11-15T10:37:13;102034.75;;;5.62;76.25
70009;BME280;59542;37.950;-122.338;2022-11-15T10:39:39;102035.19;;;5.57;76.34
70009;BME280;59542;37.950;-122.338;2022-11-15T10:42:26;102022.50;;;5.42;77.17
70009;BME280;59542;37.950;-122.338;2022-11-15T10:44:53;102034.09;;;5.41;77.32
70009;BME280;59542;37.950;-122.338;2022-11-15T10:47:31;102032.69;;;5.46;76.76
70009;BME280;59542;37.950;-122.338;2022-11-15T10:50:11;102044.56;;;5.62;76.27
70009;BME280;59542;37.950;-122.338;2022-11-15T10:52:51;102039.81;;;5.55;76.35
70009;BME280;59542;37.950;-122.338;2022-11-15T10:57:51;102036.41;;;5.73;75.34
70009;BME280;59542;37.950;-122.338;2022-11-15T11:02:57;102045.41;;;5.43;75.91
70009;BME280;59542;37.950;-122.338;2022-11-15T11:05:32;102038.34;;;5.24;76.68
70009;BME280;59542;37.950;-122.338;2022-11-15T11:08:02;102037.34;;;5.25;76.39
70009;BME280;59542;37.950;-122.338;2022-11-15T11:10:29;102037.06;;;5.28;76.46
70009;BME280;59542;37.950;-122.338;2022-11-15T11:12:55;102034.38;;;5.38;75.94
70009;BME280;59542;37.950;-122.338;2022-11-15T11:15:24;102034.00;;;5.03;77.09
70009;BME280;59542;37.950;-122.338;2022-11-15T11:18:10;102035.94;;;5.21;76.34
70009;BME280;59542;37.950;-122.338;2022-11-15T11:20:51;102041.25;;;5.30;76.31
70009;BME280;59542;37.950;-122.338;2022-11-15T11:23:45;102049.72;;;5.63;74.85
70009;BME280;59542;37.950;-122.338;2022-11-15T11:31:52;102053.78;;;5.57;74.75
70009;BME280;59542;37.950;-122.338;2022-11-15T11:37:24;102057.53;;;5.55;74.87
70009;BME280;59542;37.950;-122.338;2022-11-15T11:39:59;102057.69;;;5.53;74.89
70009;BME280;59542;37.950;-122.338;2022-11-15T11:53:56;102075.31;;;5.54;73.62
70009;BME280;59542;37.950;-122.338;2022-11-15T11:56:28;102070.81;;;5.65;73.59
70009;BME280;59542;37.950;-122.338;2022-11-15T11:59:07;102077.25;;;5.62;73.27
70009;BME280;59542;37.950;-122.338;2022-11-15T12:01:43;102081.47;;;5.45;74.14
70009;BME280;59542;37.950;-122.338;2022-11-15T12:06:50;102091.84;;;5.29;75.51
70009;BME280;59542;37.950;-122.338;2022-11-15T12:12:34;102085.09;;;4.76;77.83
70009;BME280;59542;37.950;-122.338;2022-11-15T12:15:14;102087.63;;;4.78;78.19
70009;BME280;59542;37.950;-122.338;2022-11-15T12:17:42;102078.28;;;4.74;78.22
70009;BME280;59542;37.950;-122.338;2022-11-15T12:20:24;102083.00;;;4.70;78.22
70009;BME280;59542;37.950;-122.338;2022-11-15T12:23:17;102088.00;;;4.54;79.46
70009;BME280;59542;37.950;-122.338;2022-11-15T12:28:50;102083.41;;;4.66;79.62
70009;BME280;59542;37.950;-122.338;2022-11-15T12:34:15;102082.91;;;5.01;78.15
70009;BME280;59542;37.950;-122.338;2022-11-15T12:36:55;102085.97;;;5.06;77.33
70009;BME280;59542;37.950;-122.338;2022-11-15T12:44:57;102086.66;;;4.89;77.96
70009;BME280;59542;37.950;-122.338;2022-11-15T12:47:26;102081.78;;;4.84;77.72
70009;BME280;59542;37.950;-122.338;2022-11-15T12:49:53;102075.78;;;5.11;76.95
70009;BME280;59542;37.950;-122.338;2022-11-15T12:52:19;102086.94;;;5.15;76.73
70009;BME280;59542;37.950;-122.338;2022-11-15T12:54:54;102075.34;;;5.16;76.23
70009;BME280;59542;37.950;-122.338;2022-11-15T12:57:33;102084.84;;;5.09;76.46
70009;BME280;59542;37.950;-122.338;2022-11-15T13:00:05;102083.59;;;4.93;76.91
70009;BME280;59542;37.950;-122.338;2022-11-15T13:02:47;102084.13;;;5.16;76.44
70009;BME280;59542;37.950;-122.338;2022-11-15T13:17:47;102068.78;;;5.20;75.66
70009;BME280;59542;37.950;-122.338;2022-11-15T13:30:34;102082.34;;;4.78;78.15
70009;BME280;59542;37.950;-122.338;2022-11-15T13:33:23;102070.03;;;4.67;78.41
70009;BME280;59542;37.950;-122.338;2022-11-15T13:35:56;102079.94;;;4.75;78.00
70009;BME280;59542;37.950;-122.338;2022-11-15T13:38:38;102079.25;;;4.83;77.48
70009;BME280;59542;37.950;-122.338;2022-11-15T13:41:21;102073.13;;;5.01;76.83
70009;BME280;59542;37.950;-122.338;2022-11-15T13:43:49;102068.09;;;4.98;76.70
70009;BME280;59542;37.950;-122.338;2022-11-15T13:46:17;102072.56;;;5.08;76.15
70009;BME280;59542;37.950;-122.338;2022-11-15T13:48:45;102084.72;;;5.20;75.60
70009;BME280;59542;37.950;-122.338;2022-11-15T13:51:22;102082.47;;;5.25;75.29
70009;BME280;59542;37.950;-122.338;2022-11-15T13:56:35;102097.97;;;5.29;75.35
70009;BME280;59542;37.950;-122.338;2022-11-15T13:59:34;102089.44;;;5.45;74.81
70009;BME280;59542;37.950;-122.338;2022-11-15T14:02:26;102085.81;;;5.46;74.86
70009;BME280;59542;37.950;-122.338;2022-11-15T14:04:59;102092.78;;;5.47;74.82
70009;BME280;59542;37.950;-122.338;2022-11-15T14:07:27;102102.44;;;5.48;74.81
70009;BME280;59542;37.950;-122.338;2022-11-15T14:09:54;102100.50;;;5.41;75.14
70009;BME280;59542;37.950;-122.338;2022-11-15T14:12:25;102091.53;;;5.42;75.92
70009;BME280;59542;37.950;-122.338;2022-11-15T14:14:52;102097.16;;;5.39;76.73
70009;BME280;59542;37.950;-122.338;2022-11-15T14:17:32;102093.66;;;5.28;77.81
70009;BME280;59542;37.950;-122.338;2022-11-15T14:19:59;102101.59;;;5.38;78.33
70009;BME280;59542;37.950;-122.338;2022-11-15T14:22:27;102100.50;;;5.31;79.28
70009;BME280;59542;37.950;-122.338;2022-11-15T14:25:51;102106.91;;;5.38;79.84
70009;BME280;59542;37.950;-122.338;2022-11-15T14:30:45;102115.03;;;5.37;81.39
70009;BME280;59542;37.950;-122.338;2022-11-15T14:33:36;102114.72;;;5.59;81.33